Time;durP1;ratioP1;P1;durP2;ratioP2;P2;SDS_P1;SDS_P2;PMS_P1;PMS_P2;Temp;Humidity;BMP_temperature;BMP_pressure;BME280_temperature;BME280_humidity;BME280_pressure;Samples;Min_cycle;Max_cycle;Signal;HPM_P1;HPM_P2
2022/10/23 00:01:15;;;;;;;6.20;5.70;;;23.80;67.80;;;;;;5129963;27;20465;-74
2022/10/23 00:03:44;;;;;;;5.40;5.00;;;23.80;67.80;;;;;;5124330;28;20458;-74
2022/10/23 00:06:13;;;;;;;6.33;5.83;;;23.80;67.80;;;;;;5113201;27;20448;-74
2022/10/23 00:08:41;;;;;;;6.03;5.53;;;23.80;67.90;;;;;;5114688;28;20446;-73
2022/10/23 00:11:10;;;;;;;6.50;5.90;;;23.80;67.90;;;;;;5118107;28;20465;-73
2022/10/23 00:13:39;;;;;;;6.43;5.93;;;23.80;67.90;;;;;;5130477;28;20930;-73
2022/10/23 00:16:09;;;;;;;5.60;5.20;;;23.70;67.90;;;;;;5128476;28;20786;-73
2022/10/23 00:18:38;;;;;;;6.67;6.07;;;23.70;67.90;;;;;;5132539;28;20457;-74
2022/10/23 00:21:09;;;;;;;6.33;5.80;;;23.70;68.00;;;;;;5119527;27;20531;-74
2022/10/23 00:23:37;;;;;;;5.47;5.07;;;23.80;68.00;;;;;;5124908;28;20792;-73
2022/10/23 00:26:06;;;;;;;5.73;5.23;;;23.70;68.00;;;;;;5117429;27;20474;-74
2022/10/23 00:28:35;;;;;;;5.30;4.90;;;23.70;68.00;;;;;;5131050;28;20454;-74
2022/10/23 00:31:05;;;;;;;5.60;5.10;;;23.70;68.00;;;;;;5130801;28;20430;-74
2022/10/23 00:33:36;;;;;;;5.73;5.23;;;23.70;68.00;;;;;;5125745;28;20463;-74
2022/10/23 00:36:06;;;;;;;5.90;5.40;;;23.70;68.00;;;;;;5121974;28;20951;-74
2022/10/23 00:38:34;;;;;;;6.33;5.83;;;23.70;68.00;;;;;;5132137;27;20443;-74
2022/10/23 00:41:03;;;;;;;6.23;5.73;;;23.70;68.00;;;;;;5131118;27;20450;-73
2022/10/23 00:43:32;;;;;;;8.07;6.10;;;23.70;68.00;;;;;;5115189;27;20456;-74
2022/10/23 00:46:00;;;;;;;6.00;5.50;;;23.70;68.00;;;;;;5114475;27;20474;-74
2022/10/23 00:48:29;;;;;;;6.57;5.97;;;23.70;68.10;;;;;;5119884;27;20466;-74
2022/10/23 00:50:58;;;;;;;5.70;5.30;;;23.70;68.10;;;;;;5135460;27;20483;-73
2022/10/23 00:53:26;;;;;;;5.47;5.07;;;23.70;68.10;;;;;;5127864;27;20459;-74
2022/10/23 00:55:56;;;;;;;6.43;5.40;;;23.70;68.10;;;;;;5133795;27;20452;-74
2022/10/23 00:58:24;;;;;;;5.87;5.37;;;23.70;68.10;;;;;;5124683;27;20441;-73
2022/10/23 01:00:54;;;;;;;5.70;5.17;;;23.70;68.10;;;;;;5118857;27;20457;-73
2022/10/23 01:03:25;;;;;;;6.57;6.07;;;23.70;68.10;;;;;;5124692;27;20451;-74
2022/10/23 01:06:01;;;;;;;5.83;5.33;;;23.70;68.10;;;;;;5115975;28;20511;-74
2022/10/23 01:08:35;;;;;;;4.90;4.60;;;23.70;68.10;;;;;;5133016;27;20539;-74
2022/10/23 01:11:10;;;;;;;5.90;5.50;;;23.70;68.10;;;;;;5129720;27;21372;-74
2022/10/23 01:13:48;;;;;;;5.97;5.37;;;23.70;68.10;;;;;;5124689;27;20485;-74
2022/10/23 01:16:21;;;;;;;4.77;4.47;;;23.70;68.10;;;;;;5114355;27;20494;-74
2022/10/23 01:18:58;;;;;;;5.73;5.30;;;23.70;68.10;;;;;;5126327;27;20497;-74
2022/10/23 01:21:38;;;;;;;4.90;4.60;;;23.70;68.10;;;;;;5125924;27;20535;-74
2022/10/23 01:24:12;;;;;;;4.80;4.40;;;23.70;68.10;;;;;;5133433;27;20504;-74
2022/10/23 01:26:55;;;;;;;5.53;5.10;;;23.70;68.10;;;;;;5118522;27;20457;-74
2022/10/23 01:29:29;;;;;;;5.17;4.77;;;23.70;68.10;;;;;;5126184;27;20481;-73
2022/10/23 01:32:04;;;;;;;5.43;5.00;;;23.70;68.10;;;;;;5124295;27;20482;-73
2022/10/23 01:34:41;;;;;;;5.40;4.90;;;23.70;68.10;;;;;;5134211;27;20453;-74
2022/10/23 01:37:13;;;;;;;5.60;5.20;;;23.70;68.10;;;;;;5117421;27;20560;-75
2022/10/23 01:39:47;;;;;;;5.37;5.00;;;23.70;68.10;;;;;;5129525;27;20467;-74
2022/10/23 01:42:20;;;;;;;4.90;4.50;;;23.70;68.10;;;;;;5127598;27;20528;-74
2022/10/23 01:44:54;;;;;;;5.67;5.17;;;23.70;68.10;;;;;;5113658;27;20505;-74
2022/10/23 01:47:28;;;;;;;4.87;4.47;;;23.70;68.10;;;;;;5114246;27;20465;-74
2022/10/23 01:50:06;;;;;;;5.20;4.80;;;23.70;68.10;;;;;;5144160;27;20972;-74
2022/10/23 01:52:34;;;;;;;5.03;4.63;;;23.70;68.10;;;;;;5116970;27;20462;-74
2022/10/23 01:55:07;;;;;;;4.77;4.37;;;23.70;68.10;;;;;;5132538;27;20456;-75
2022/10/23 01:57:37;;;;;;;5.00;4.50;;;23.70;68.10;;;;;;5118542;27;20450;-74
2022/10/23 02:00:09;;;;;;;4.90;4.50;;;23.70;68.10;;;;;;5118677;27;20514;-74
2022/10/23 02:02:52;;;;;;;5.00;4.60;;;23.60;68.10;;;;;;5127162;27;20445;-74
2022/10/23 02:05:26;;;;;;;4.43;4.13;;;23.60;68.10;;;;;;5120646;27;20970;-74
2022/10/23 02:07:57;;;;;;;5.20;4.90;;;23.60;68.10;;;;;;5133048;27;20456;-74
2022/10/23 02:10:29;;;;;;;4.87;4.47;;;23.60;68.10;;;;;;5122001;27;20531;-74
2022/10/23 02:13:02;;;;;;;4.10;3.83;;;23.60;68.10;;;;;;5132355;27;20486;-74
2022/10/23 02:15:37;;;;;;;4.60;4.30;;;23.60;68.10;;;;;;5125914;27;20449;-74
2022/10/23 02:18:12;;;;;;;5.80;5.17;;;23.60;68.10;;;;;;5116564;27;21065;-74
2022/10/23 02:20:44;;;;;;;5.00;4.60;;;23.60;68.20;;;;;;5127435;27;20564;-75
2022/10/23 02:23:20;;;;;;;5.63;4.40;;;23.60;68.20;;;;;;5131840;27;20803;-74
2022/10/23 02:25:54;;;;;;;4.73;4.33;;;23.60;68.20;;;;;;5114103;27;20939;-74
2022/10/23 02:28:27;;;;;;;4.93;4.53;;;23.60;68.20;;;;;;5112065;27;20447;-74
2022/10/23 02:31:03;;;;;;;4.33;4.03;;;23.60;68.20;;;;;;5112491;28;20452;-74
2022/10/23 02:33:33;;;;;;;5.13;4.73;;;23.60;68.20;;;;;;5111919;27;20474;-74
2022/10/23 02:36:01;;;;;;;4.90;4.50;;;23.60;68.20;;;;;;5120147;27;20506;-74
2022/10/23 02:38:33;;;;;;;4.73;4.37;;;23.60;68.20;;;;;;5113469;27;20863;-74
2022/10/23 02:41:14;;;;;;;4.53;4.17;;;23.60;68.20;;;;;;5116807;27;20457;-74
2022/10/23 02:43:50;;;;;;;4.77;4.37;;;23.60;68.20;;;;;;5119765;27;20468;-74
2022/10/23 02:46:25;;;;;;;5.00;4.63;;;23.60;68.20;;;;;;5120345;27;21006;-74
2022/10/23 02:49:03;;;;;;;5.07;4.77;;;23.60;68.20;;;;;;5124735;27;20446;-75
2022/10/23 02:51:39;;;;;;;5.00;4.60;;;23.60;68.20;;;;;;5113849;27;20537;-74
2022/10/23 02:54:15;;;;;;;4.70;4.30;;;23.60;68.20;;;;;;5125933;27;20472;-74
2022/10/23 02:56:53;;;;;;;3.50;3.30;;;23.60;68.20;;;;;;5114537;27;20959;-74
2022/10/23 02:59:27;;;;;;;4.10;3.80;;;23.60;68.20;;;;;;5122855;27;20506;-74
2022/10/23 03:02:03;;;;;;;4.17;3.87;;;23.60;68.20;;;;;;5124249;27;20811;-74
2022/10/23 03:04:32;;;;;;;3.90;3.70;;;23.60;68.20;;;;;;5125768;27;20493;-74
2022/10/23 03:07:00;;;;;;;4.00;3.70;;;23.60;68.20;;;;;;5114481;27;20537;-74
2022/10/23 03:09:30;;;;;;;4.47;4.07;;;23.60;68.20;;;;;;5125509;27;20547;-74
2022/10/23 03:11:59;;;;;;;4.73;4.43;;;23.50;68.20;;;;;;5119101;27;20461;-73
2022/10/23 03:14:27;;;;;;;3.90;3.60;;;23.60;68.20;;;;;;5112188;27;20564;-74
2022/10/23 03:16:56;;;;;;;3.40;3.20;;;23.60;68.20;;;;;;5113939;27;20451;-74
2022/10/23 03:19:25;;;;;;;4.03;3.73;;;23.60;68.20;;;;;;5132723;27;20474;-74
2022/10/23 03:21:54;;;;;;;4.03;3.73;;;23.50;68.20;;;;;;5130266;27;20485;-74
2022/10/23 03:24:22;;;;;;;4.23;3.83;;;23.60;68.20;;;;;;5126231;27;20450;-74
2022/10/23 03:26:50;;;;;;;4.30;4.00;;;23.60;68.20;;;;;;5117949;27;20462;-74
2022/10/23 03:29:24;;;;;;;3.50;3.30;;;23.60;68.20;;;;;;5126149;27;20476;-74
2022/10/23 03:31:54;;;;;;;3.90;3.60;;;23.50;68.20;;;;;;5127527;27;20528;-74
2022/10/23 03:34:24;;;;;;;4.13;3.87;;;23.60;68.20;;;;;;5120318;27;20567;-74
2022/10/23 03:36:53;;;;;;;4.23;3.93;;;23.50;68.20;;;;;;5110829;28;20549;-74
2022/10/23 03:39:21;;;;;;;3.03;2.83;;;23.50;68.20;;;;;;5131321;27;20458;-74
2022/10/23 03:41:49;;;;;;;3.20;3.00;;;23.50;68.20;;;;;;5132139;27;20566;-74
2022/10/23 03:44:18;;;;;;;3.97;3.67;;;23.50;68.20;;;;;;5120804;27;20482;-74
2022/10/23 03:46:46;;;;;;;3.90;3.60;;;23.50;68.20;;;;;;5110628;28;20811;-74
2022/10/23 03:49:14;;;;;;;3.60;3.30;;;23.50;68.20;;;;;;5115082;27;20813;-74
2022/10/23 03:51:50;;;;;;;4.40;4.10;;;23.50;68.20;;;;;;5116517;27;20836;-74
2022/10/23 03:54:22;;;;;;;3.93;3.73;;;23.50;68.20;;;;;;5112331;28;20972;-74
2022/10/23 03:56:50;;;;;;;3.47;3.27;;;23.50;68.30;;;;;;5117431;27;20464;-75
2022/10/23 03:59:24;;;;;;;3.37;3.17;;;23.50;68.20;;;;;;5116918;27;20528;-74
2022/10/23 04:01:52;;;;;;;3.80;3.50;;;23.50;68.30;;;;;;5127811;28;20449;-74
2022/10/23 04:04:21;;;;;;;3.57;3.27;;;23.50;68.20;;;;;;5121676;28;20541;-74
2022/10/23 04:06:50;;;;;;;3.63;3.40;;;23.50;68.20;;;;;;5110341;28;20479;-74
2022/10/23 04:09:19;;;;;;;3.30;3.10;;;23.50;68.20;;;;;;5113167;28;20487;-73
2022/10/23 04:11:47;;;;;;;3.20;3.00;;;23.50;68.20;;;;;;5116516;27;20453;-73
2022/10/23 04:14:17;;;;;;;3.73;3.53;;;23.50;68.20;;;;;;5118417;28;20864;-73
2022/10/23 04:16:45;;;;;;;3.97;3.67;;;23.50;68.20;;;;;;5127256;27;20490;-73
2022/10/23 04:19:13;;;;;;;4.00;3.60;;;23.50;68.20;;;;;;5117136;27;20517;-73
2022/10/23 04:21:41;;;;;;;3.23;3.03;;;23.50;68.30;;;;;;5120184;27;20449;-73
2022/10/23 04:24:11;;;;;;;3.30;3.10;;;23.50;68.20;;;;;;5120949;27;20463;-73
2022/10/23 04:26:39;;;;;;;3.50;3.27;;;23.50;68.30;;;;;;5128177;27;20474;-72
2022/10/23 04:29:10;;;;;;;3.40;3.20;;;23.50;68.30;;;;;;5123414;27;20471;-73
2022/10/23 04:31:38;;;;;;;2.80;2.60;;;23.50;68.20;;;;;;5114618;27;20556;-73
2022/10/23 04:34:06;;;;;;;3.17;2.97;;;23.50;68.30;;;;;;5117339;27;20571;-73
2022/10/23 04:36:36;;;;;;;3.10;2.90;;;23.50;68.30;;;;;;5119732;27;20473;-73
2022/10/23 04:39:11;;;;;;;3.40;3.20;;;23.50;68.30;;;;;;5116649;27;20465;-73
2022/10/23 04:41:40;;;;;;;3.20;3.00;;;23.50;68.30;;;;;;5133626;27;20946;-74
2022/10/23 04:44:08;;;;;;;3.93;3.63;;;23.50;68.30;;;;;;5120651;27;20567;-74
2022/10/23 04:46:40;;;;;;;3.33;3.13;;;23.50;68.30;;;;;;5115831;27;20472;-74
2022/10/23 04:49:10;;;;;;;2.30;2.20;;;23.50;68.30;;;;;;5115127;28;20839;-74
2022/10/23 04:51:56;;;;;;;3.40;3.20;;;23.50;68.30;;;;;;5130695;27;20457;-73
2022/10/23 04:54:40;;;;;;;3.20;3.00;;;23.50;68.30;;;;;;5120442;27;20468;-72
2022/10/23 04:57:31;;;;;;;3.63;3.33;;;23.50;68.30;;;;;;5113210;27;20467;-72
2022/10/23 05:00:10;;;;;;;3.10;2.90;;;23.50;68.50;;;;;;5130114;27;20557;-72
2022/10/23 05:02:45;;;;;;;3.63;3.33;;;23.40;68.50;;;;;;5126052;27;20473;-73
2022/10/23 05:05:16;;;;;;;2.67;2.57;;;23.40;68.60;;;;;;5123789;27;20469;-73
2022/10/23 05:07:53;;;;;;;2.70;2.50;;;23.50;68.60;;;;;;5123342;27;20791;-72
2022/10/23 05:10:37;;;;;;;3.33;3.13;;;23.50;68.60;;;;;;5134482;27;20541;-73
2022/10/23 05:13:10;;;;;;;2.90;2.70;;;23.50;68.70;;;;;;5115489;27;20499;-72
2022/10/23 05:15:40;;;;;;;2.90;2.70;;;23.50;68.60;;;;;;5119021;27;20525;-74
2022/10/23 05:18:13;;;;;;;2.63;2.43;;;23.50;68.60;;;;;;5126474;27;20458;-72
2022/10/23 05:20:42;;;;;;;2.67;2.47;;;23.40;68.70;;;;;;5118260;27;20468;-72
2022/10/23 05:23:14;;;;;;;3.07;2.80;;;23.50;68.60;;;;;;5118174;27;20537;-72
2022/10/23 05:25:53;;;;;;;2.50;2.40;;;23.50;68.60;;;;;;5124904;27;21068;-72
2022/10/23 05:28:22;;;;;;;3.07;2.87;;;23.40;68.60;;;;;;5112945;27;20547;-72
2022/10/23 05:30:51;;;;;;;2.53;2.43;;;23.40;68.60;;;;;;5117101;27;20455;-72
2022/10/23 05:33:25;;;;;;;2.80;2.60;;;23.40;68.60;;;;;;5128126;27;20510;-74
2022/10/23 05:35:56;;;;;;;3.00;2.80;;;23.40;68.60;;;;;;5113762;27;21000;-72
2022/10/23 05:38:26;;;;;;;3.13;2.67;;;23.40;68.60;;;;;;5115157;27;21090;-73
2022/10/23 05:40:56;;;;;;;2.90;2.70;;;23.40;68.60;;;;;;5120202;27;20570;-73
2022/10/23 05:43:25;;;;;;;2.57;2.43;;;23.40;68.60;;;;;;5125720;27;20504;-72
2022/10/23 05:46:03;;;;;;;2.50;2.40;;;23.40;68.60;;;;;;5133743;27;20473;-72
2022/10/23 05:48:31;;;;;;;2.83;2.63;;;23.40;68.60;;;;;;5124195;27;20502;-72
2022/10/23 05:51:19;;;;;;;2.30;2.20;;;23.40;68.60;;;;;;5117118;27;20448;-72
2022/10/23 05:54:26;;;;;;;2.50;2.30;;;23.40;68.60;;;;;;5102953;27;20465;-72
2022/10/23 05:57:18;;;;;;;2.57;2.43;;;23.40;68.60;;;;;;5076679;27;20453;-72
2022/10/23 05:59:51;;;;;;;2.23;2.13;;;23.40;68.60;;;;;;5114945;27;20552;-72
2022/10/23 06:02:40;;;;;;;2.70;2.60;;;23.40;68.60;;;;;;5117398;27;20447;-72
2022/10/23 06:05:29;;;;;;;2.67;2.53;;;23.40;68.60;;;;;;5112284;28;20458;-72
2022/10/23 06:08:19;;;;;;;2.93;2.73;;;23.40;68.60;;;;;;5113459;27;20473;-72
2022/10/23 06:10:49;;;;;;;2.90;2.70;;;23.40;68.60;;;;;;5114342;27;20448;-72
2022/10/23 06:13:20;;;;;;;2.33;2.23;;;23.40;68.60;;;;;;5115688;27;20497;-73
2022/10/23 06:15:48;;;;;;;2.90;2.70;;;23.40;68.60;;;;;;5126489;27;20477;-72
2022/10/23 06:18:20;;;;;;;2.63;2.43;;;23.40;68.60;;;;;;5129664;27;20548;-72
2022/10/23 06:20:55;;;;;;;3.10;2.90;;;23.40;68.60;;;;;;5113403;27;20461;-72
2022/10/23 06:23:26;;;;;;;2.67;2.57;;;23.40;68.60;;;;;;5134239;27;20466;-72
2022/10/23 06:26:23;;;;;;;2.20;2.10;;;23.40;68.60;;;;;;5115565;27;20477;-72
2022/10/23 06:29:08;;;;;;;2.87;2.67;;;23.40;68.60;;;;;;5111275;27;21183;-73
2022/10/23 06:31:37;;;;;;;2.00;1.90;;;23.40;68.60;;;;;;5115108;27;20458;-74
2022/10/23 06:34:05;;;;;;;2.57;2.47;;;23.40;68.70;;;;;;5115783;27;20458;-72
2022/10/23 06:36:36;;;;;;;2.40;2.30;;;23.40;68.70;;;;;;5117388;27;20969;-73
2022/10/23 06:39:21;;;;;;;2.40;2.20;;;23.40;68.90;;;;;;5118151;27;20447;-72
2022/10/23 06:42:01;;;;;;;2.13;2.03;;;23.40;68.90;;;;;;5114891;27;20465;-73
2022/10/23 06:45:03;;;;;;;2.47;2.30;;;23.40;68.70;;;;;;5122568;27;20481;-73
2022/10/23 06:47:54;;;;;;;2.60;2.50;;;23.40;68.70;;;;;;5123882;27;20476;-72
2022/10/23 06:50:45;;;;;;;3.57;2.80;;;23.40;68.70;;;;;;5114982;27;20489;-72
2022/10/23 06:53:18;;;;;;;4.83;2.67;;;23.40;68.70;;;;;;5115748;27;21698;-73
2022/10/23 06:55:52;;;;;;;7.13;4.80;;;23.50;68.70;;;;;;5118395;27;20482;-72
2022/10/23 06:58:23;;;;;;;11.57;5.70;;;23.40;68.80;;;;;;5115155;27;20618;-72
2022/10/23 07:01:03;;;;;;;8.77;4.73;;;23.50;68.80;;;;;;5115035;27;21005;-72
2022/10/23 07:03:31;;;;;;;8.00;4.87;;;23.50;68.80;;;;;;5116830;27;20458;-72
2022/10/23 07:06:05;;;;;;;13.60;5.40;;;23.50;68.80;;;;;;5118241;27;20513;-72
2022/10/23 07:08:34;;;;;;;8.97;4.80;;;23.50;68.80;;;;;;5120851;27;20456;-72
2022/10/23 07:11:07;;;;;;;9.73;5.03;;;23.50;68.90;;;;;;5113213;27;20820;-73
2022/10/23 07:13:37;;;;;;;11.20;5.10;;;23.50;68.80;;;;;;5110828;27;20540;-74
2022/10/23 07:16:18;;;;;;;8.60;5.00;;;23.50;68.80;;;;;;5108785;27;20481;-72
2022/10/23 07:18:47;;;;;;;7.60;4.23;;;23.50;68.80;;;;;;5121341;27;20474;-73
2022/10/23 07:21:41;;;;;;;8.00;5.30;;;23.50;68.80;;;;;;5116011;27;20461;-72
2022/10/23 07:24:47;;;;;;;11.13;4.97;;;23.50;68.80;;;;;;5098579;27;20469;-73
2022/10/23 07:27:30;;;;;;;8.27;4.37;;;23.50;68.80;;;;;;5109739;27;20484;-72
2022/10/23 07:30:01;;;;;;;10.40;4.77;;;23.50;68.80;;;;;;5119195;27;20469;-72
2022/10/23 07:32:36;;;;;;;10.30;5.17;;;23.50;68.80;;;;;;5113666;27;20887;-73
2022/10/23 07:35:23;;;;;;;5.37;3.93;;;23.50;68.80;;;;;;5117788;27;20553;-73
2022/10/23 07:38:00;;;;;;;6.47;4.30;;;23.50;68.70;;;;;;5110742;27;21206;-73
2022/10/23 07:40:32;;;;;;;6.70;4.63;;;23.50;68.70;;;;;;5111070;28;20457;-72
2022/10/23 07:43:00;;;;;;;10.03;4.40;;;23.50;68.70;;;;;;5110668;27;20470;-73
2022/10/23 07:45:28;;;;;;;5.87;3.57;;;23.50;68.70;;;;;;5106113;27;20487;-71
2022/10/23 07:47:58;;;;;;;5.77;4.10;;;23.50;68.70;;;;;;5122246;27;20469;-71
2022/10/23 07:50:37;;;;;;;4.83;3.57;;;23.50;69.00;;;;;;5118619;27;20469;-71
2022/10/23 07:53:06;;;;;;;6.17;4.37;;;23.50;69.10;;;;;;5108280;28;20475;-71
2022/10/23 07:55:41;;;;;;;6.03;3.80;;;23.50;69.40;;;;;;5116480;27;20488;-72
2022/10/23 07:58:14;;;;;;;8.33;4.50;;;23.50;69.30;;;;;;5114273;27;20468;-71
2022/10/23 08:00:50;;;;;;;3.80;3.20;;;23.50;69.30;;;;;;5113854;27;20590;-72
2022/10/23 08:03:30;;;;;;;5.47;3.70;;;23.50;69.30;;;;;;5117785;28;20899;-74
2022/10/23 08:06:00;;;;;;;8.30;4.40;;;23.50;69.30;;;;;;5115780;28;20532;-72
2022/10/23 08:08:28;;;;;;;4.50;3.27;;;23.50;69.40;;;;;;5112838;28;20482;-73
2022/10/23 08:11:02;;;;;;;7.03;3.80;;;23.50;69.40;;;;;;5112030;28;20480;-73
2022/10/23 08:13:37;;;;;;;5.43;3.43;;;23.50;69.50;;;;;;5121328;28;20487;-71
2022/10/23 08:16:07;;;;;;;4.43;3.30;;;23.50;69.50;;;;;;5122100;27;20480;-73
2022/10/23 08:18:55;;;;;;;4.60;3.03;;;23.50;69.50;;;;;;5115358;28;20816;-71
2022/10/23 08:21:24;;;;;;;3.13;2.90;;;23.50;69.50;;;;;;5108080;28;20466;-72
2022/10/23 08:23:54;;;;;;;3.37;3.07;;;23.50;69.50;;;;;;5127002;28;20448;-70
2022/10/23 08:26:24;;;;;;;3.23;2.93;;;23.50;69.50;;;;;;5112108;28;20872;-71
2022/10/23 08:28:53;;;;;;;4.20;3.03;;;23.60;69.40;;;;;;5122091;28;20461;-71
2022/10/23 08:31:23;;;;;;;2.70;2.50;;;23.50;69.40;;;;;;5115036;28;20470;-70
2022/10/23 08:34:14;;;;;;;3.50;3.07;;;23.50;69.40;;;;;;5118287;28;20551;-71
2022/10/23 08:36:43;;;;;;;3.43;2.53;;;23.50;69.30;;;;;;5115231;28;20987;-71
2022/10/23 08:39:12;;;;;;;3.43;2.87;;;23.50;69.40;;;;;;5131080;27;20521;-70
2022/10/23 08:41:52;;;;;;;5.73;2.97;;;23.60;69.30;;;;;;5113104;28;20451;-70
2022/10/23 08:44:26;;;;;;;4.67;3.20;;;23.60;69.20;;;;;;5108835;28;20484;-71
2022/10/23 08:47:03;;;;;;;4.83;3.70;;;23.60;69.20;;;;;;5118358;28;21048;-70
2022/10/23 08:49:56;;;;;;;2.87;2.57;;;23.60;69.20;;;;;;5117883;28;20449;-71
2022/10/23 08:52:30;;;;;;;3.03;2.80;;;23.60;69.20;;;;;;5119004;28;20552;-70
2022/10/23 08:55:07;;;;;;;3.43;2.70;;;23.60;69.10;;;;;;5120589;28;20461;-70
2022/10/23 08:57:42;;;;;;;3.20;3.00;;;23.60;69.10;;;;;;5117410;28;20469;-70
2022/10/23 09:00:15;;;;;;;3.57;2.90;;;23.60;69.10;;;;;;5114981;28;20456;-71
2022/10/23 09:02:45;;;;;;;2.53;2.33;;;23.60;69.00;;;;;;5116777;27;20472;-71
2022/10/23 09:05:19;;;;;;;2.50;2.30;;;23.60;69.10;;;;;;5123086;27;20456;-71
2022/10/23 09:08:04;;;;;;;3.10;2.43;;;23.60;69.10;;;;;;5119838;27;20456;-71
2022/10/23 09:11:00;;;;;;;4.43;2.40;;;23.60;69.10;;;;;;5122386;27;20468;-72
2022/10/23 09:13:52;;;;;;;4.93;2.70;;;23.60;69.10;;;;;;5118792;27;20485;-73
2022/10/23 09:16:32;;;;;;;2.63;2.43;;;23.60;69.10;;;;;;5116884;27;20508;-71
2022/10/23 09:19:00;;;;;;;2.80;2.20;;;23.60;69.10;;;;;;5113185;27;20477;-73
2022/10/23 09:21:29;;;;;;;3.10;2.57;;;23.60;69.10;;;;;;5116949;27;20465;-71
2022/10/23 09:23:58;;;;;;;4.03;2.70;;;23.60;69.10;;;;;;5116150;27;20469;-75
2022/10/23 09:26:26;;;;;;;3.43;2.30;;;23.60;69.10;;;;;;5116866;27;20473;-71
2022/10/23 09:29:18;;;;;;;6.00;2.53;;;23.70;69.10;;;;;;5119839;27;20469;-72
2022/10/23 09:31:51;;;;;;;6.30;2.80;;;23.70;69.20;;;;;;5118820;27;20527;-72
2022/10/23 09:34:21;;;;;;;3.30;2.73;;;23.70;69.30;;;;;;5120269;27;20541;-71
2022/10/23 09:36:53;;;;;;;3.00;2.33;;;23.70;69.30;;;;;;5123241;27;20557;-71
2022/10/23 09:39:26;;;;;;;2.90;2.70;;;23.70;69.20;;;;;;5117361;27;20443;-72
2022/10/23 09:41:54;;;;;;;3.33;3.03;;;23.70;69.20;;;;;;5113063;27;20511;-68
2022/10/23 09:44:25;;;;;;;4.10;2.80;;;23.70;69.20;;;;;;5111277;27;20477;-72
2022/10/23 09:46:58;;;;;;;3.00;2.63;;;23.70;69.20;;;;;;5125803;27;20471;-72
2022/10/23 09:49:29;;;;;;;5.03;2.80;;;23.80;69.30;;;;;;5118779;27;20458;-71
2022/10/23 09:52:05;;;;;;;3.07;2.87;;;23.80;69.20;;;;;;5119431;27;20449;-71
2022/10/23 09:54:37;;;;;;;6.43;2.70;;;23.80;69.10;;;;;;5118333;27;20487;-73
2022/10/23 09:57:22;;;;;;;3.00;2.57;;;23.80;69.00;;;;;;5116002;27;20543;-72
2022/10/23 09:59:52;;;;;;;2.70;2.50;;;23.80;69.00;;;;;;5119126;27;20448;-72
2022/10/23 10:02:27;;;;;;;2.73;2.53;;;23.90;69.00;;;;;;5118005;27;21037;-72
2022/10/23 10:05:24;;;;;;;2.77;2.50;;;23.90;69.00;;;;;;5107347;27;20491;-73
2022/10/23 10:08:01;;;;;;;3.63;2.90;;;24.00;68.90;;;;;;5112313;27;20453;-72
2022/10/23 10:10:35;;;;;;;3.20;2.83;;;24.00;68.80;;;;;;5118117;27;20496;-71
2022/10/23 10:13:09;;;;;;;2.47;2.27;;;24.10;68.70;;;;;;5119010;27;21341;-71
2022/10/23 10:15:47;;;;;;;4.33;2.70;;;24.10;68.70;;;;;;5118723;27;20449;-72
2022/10/23 10:18:21;;;;;;;2.83;2.40;;;24.10;68.70;;;;;;5123742;27;20531;-71
2022/10/23 10:21:00;;;;;;;6.10;2.80;;;24.20;68.60;;;;;;5117339;27;20544;-71
2022/10/23 10:23:37;;;;;;;2.60;2.40;;;24.20;68.70;;;;;;5115564;27;20453;-71
2022/10/23 10:26:21;;;;;;;5.53;3.10;;;24.20;68.70;;;;;;5123130;27;20946;-73
2022/10/23 10:28:59;;;;;;;3.10;2.20;;;24.20;68.60;;;;;;5114294;27;20464;-73
2022/10/23 10:31:42;;;;;;;3.73;2.00;;;24.20;68.50;;;;;;5117496;27;20528;-73
2022/10/23 10:34:14;;;;;;;2.10;1.90;;;24.30;68.40;;;;;;5115615;27;20455;-73
2022/10/23 10:36:49;;;;;;;2.93;2.13;;;24.40;68.30;;;;;;5120376;27;20838;-73
2022/10/23 10:39:29;;;;;;;4.40;3.80;;;24.50;68.10;;;;;;5120511;27;20455;-73
2022/10/23 10:42:14;;;;;;;6.40;2.30;;;24.50;67.90;;;;;;5122464;27;20460;-73
2022/10/23 10:44:54;;;;;;;2.83;2.03;;;24.60;67.70;;;;;;5115552;27;20948;-73
2022/10/23 10:47:27;;;;;;;3.83;2.30;;;24.60;67.60;;;;;;5117681;27;20463;-73
2022/10/23 10:50:03;;;;;;;4.67;2.53;;;24.70;67.60;;;;;;5118496;27;20554;-73
2022/10/23 10:52:59;;;;;;;5.73;2.73;;;24.70;67.60;;;;;;5121220;27;20946;-72
2022/10/23 10:55:35;;;;;;;6.10;3.27;;;24.70;67.60;;;;;;5115843;27;20461;-72
2022/10/23 10:58:10;;;;;;;6.53;3.10;;;24.70;67.70;;;;;;5119100;27;20970;-72
2022/10/23 11:00:38;;;;;;;3.50;2.63;;;24.70;67.60;;;;;;5120408;27;20488;-72
2022/10/23 11:03:18;;;;;;;8.40;3.03;;;24.70;67.40;;;;;;5116364;27;20584;-73
2022/10/23 11:05:47;;;;;;;6.27;3.93;;;24.70;67.30;;;;;;5122004;27;20457;-71
2022/10/23 11:08:20;;;;;;;4.00;3.17;;;24.70;67.30;;;;;;5121645;27;20458;-73
2022/10/23 11:10:54;;;;;;;2.80;2.50;;;24.70;67.30;;;;;;5117386;27;20550;-71
2022/10/23 11:13:26;;;;;;;3.20;2.57;;;24.70;67.20;;;;;;5116056;27;20484;-73
2022/10/23 11:15:59;;;;;;;9.83;3.47;;;24.70;67.20;;;;;;5112206;27;21022;-73
2022/10/23 11:18:30;;;;;;;4.17;2.97;;;24.70;67.30;;;;;;5118915;27;20827;-73
2022/10/23 11:21:08;;;;;;;4.10;2.97;;;24.60;67.30;;;;;;5117663;27;20590;-73
2022/10/23 11:24:12;;;;;;;7.03;3.70;;;24.60;67.40;;;;;;5116521;27;20558;-72
2022/10/23 11:26:55;;;;;;;6.60;2.97;;;24.60;67.50;;;;;;5109397;27;20463;-72
2022/10/23 11:29:35;;;;;;;6.80;3.37;;;24.70;67.40;;;;;;5120751;27;20464;-71
2022/10/23 11:32:28;;;;;;;7.80;3.00;;;24.70;67.30;;;;;;5122064;27;20450;-72
2022/10/23 11:35:18;;;;;;;3.00;2.70;;;24.60;67.20;;;;;;5116836;27;20459;-72
2022/10/23 11:37:58;;;;;;;10.50;3.00;;;24.60;67.30;;;;;;5118367;27;21086;-72
2022/10/23 11:40:26;;;;;;;6.83;3.00;;;24.60;67.30;;;;;;5116241;27;20962;-71
2022/10/23 11:42:55;;;;;;;6.53;3.43;;;24.50;67.40;;;;;;5116918;27;20795;-72
2022/10/23 11:45:35;;;;;;;5.60;2.73;;;24.50;67.40;;;;;;5118632;27;20480;-72
2022/10/23 11:48:05;;;;;;;6.17;2.80;;;24.50;67.60;;;;;;5115543;27;20921;-72
2022/10/23 11:50:49;;;;;;;6.80;2.87;;;24.50;67.50;;;;;;5118433;27;20460;-72
2022/10/23 11:53:27;;;;;;;7.37;3.50;;;24.40;67.50;;;;;;5113526;27;20452;-71
2022/10/23 11:56:05;;;;;;;7.00;3.93;;;24.40;67.50;;;;;;5124203;27;20545;-72
2022/10/23 11:58:47;;;;;;;4.40;2.87;;;24.40;67.60;;;;;;5121016;27;20468;-71
2022/10/23 12:01:24;;;;;;;4.57;3.00;;;24.40;67.60;;;;;;5121285;27;20455;-72
2022/10/23 12:03:55;;;;;;;4.27;3.30;;;24.40;67.70;;;;;;5122561;27;20553;-72
2022/10/23 12:06:28;;;;;;;6.10;3.17;;;24.40;67.70;;;;;;5109265;28;20462;-72
2022/10/23 12:09:01;;;;;;;8.23;2.97;;;24.40;67.80;;;;;;5126530;28;20453;-72
2022/10/23 12:11:42;;;;;;;4.83;3.03;;;24.40;67.90;;;;;;5131631;27;20543;-72
2022/10/23 12:14:29;;;;;;;8.93;3.23;;;24.40;67.90;;;;;;5132795;28;20468;-72
2022/10/23 12:16:58;;;;;;;5.43;2.80;;;24.50;67.70;;;;;;5129127;28;20449;-72
2022/10/23 12:19:28;;;;;;;5.37;2.97;;;24.50;67.50;;;;;;5132294;28;20467;-71
2022/10/23 12:22:00;;;;;;;3.77;2.40;;;24.60;67.40;;;;;;5132058;27;20789;-72
2022/10/23 12:24:42;;;;;;;10.43;3.00;;;24.70;67.30;;;;;;5131827;27;20933;-71
2022/10/23 12:27:20;;;;;;;5.70;2.60;;;24.70;67.10;;;;;;5127936;27;20461;-72
2022/10/23 12:30:09;;;;;;;6.70;3.10;;;24.90;66.80;;;;;;5122207;28;20482;-72
2022/10/23 12:33:00;;;;;;;6.83;2.70;;;25.00;66.60;;;;;;5125884;27;20485;-71
2022/10/23 12:35:47;;;;;;;7.60;3.00;;;25.20;66.20;;;;;;5131676;27;20453;-72
2022/10/23 12:38:18;;;;;;;2.50;2.30;;;25.40;65.90;;;;;;5119938;27;20497;-72
2022/10/23 12:40:50;;;;;;;4.83;2.57;;;25.50;65.40;;;;;;5126600;27;20435;-72
2022/10/23 12:43:26;;;;;;;5.23;2.10;;;25.70;65.20;;;;;;5135734;27;20548;-72
2022/10/23 12:45:57;;;;;;;4.10;2.50;;;25.80;65.00;;;;;;5116145;27;20483;-72
2022/10/23 12:48:25;;;;;;;4.03;2.47;;;25.80;64.80;;;;;;5114896;27;20463;-72
2022/10/23 12:50:55;;;;;;;3.77;2.60;;;25.90;64.70;;;;;;5131804;27;20458;-72
2022/10/23 12:53:24;;;;;;;5.13;2.50;;;25.90;64.70;;;;;;5135519;27;20447;-72
2022/10/23 12:55:56;;;;;;;3.13;2.27;;;25.90;64.60;;;;;;5136297;27;20555;-72
2022/10/23 12:58:28;;;;;;;3.17;2.57;;;25.90;64.60;;;;;;5134116;27;21037;-72
2022/10/23 13:01:04;;;;;;;3.30;2.23;;;25.90;64.60;;;;;;5114291;27;20454;-72
2022/10/23 13:03:34;;;;;;;4.00;2.57;;;25.90;64.60;;;;;;5118185;27;20449;-72
2022/10/23 13:06:03;;;;;;;5.00;2.07;;;25.90;64.60;;;;;;5136143;27;20443;-72
2022/10/23 13:08:38;;;;;;;4.00;2.20;;;25.90;64.70;;;;;;5120270;27;20453;-72
2022/10/23 13:11:29;;;;;;;4.63;2.80;;;25.90;64.80;;;;;;5113744;28;20889;-72
2022/10/23 13:14:00;;;;;;;5.30;2.43;;;25.90;64.80;;;;;;5115477;28;20490;-72
2022/10/23 13:16:30;;;;;;;3.60;2.50;;;25.90;64.80;;;;;;5115016;28;20713;-72
2022/10/23 13:18:58;;;;;;;3.13;2.53;;;25.90;64.90;;;;;;5133863;27;20481;-72
2022/10/23 13:21:29;;;;;;;2.53;1.90;;;25.80;64.90;;;;;;5123544;27;20443;-72
2022/10/23 13:23:57;;;;;;;5.07;2.43;;;25.80;64.90;;;;;;5115314;28;20438;-72